createdAt,value
2022-12-16T00:03:39.527Z,31.63
2022-12-16T00:08:37.585Z,31.02
2022-12-16T00:13:34.675Z,34.15
2022-12-16T00:18:31.362Z,36.97
2022-12-16T00:23:27.964Z,36.95
2022-12-16T00:28:24.285Z,32.40
2022-12-16T00:33:21.565Z,28.50
2022-12-16T00:38:18.042Z,34.70
2022-12-16T00:43:14.330Z,39.00
2022-12-16T00:48:10.521Z,28.73
2022-12-16T00:53:06.752Z,34.67
2022-12-16T00:58:02.993Z,32.70
2022-12-16T01:02:59.444Z,35.58
2022-12-16T01:07:55.921Z,31.48
2022-12-16T01:12:52.196Z,31.27
2022-12-16T01:17:49.709Z,35.47
2022-12-16T01:22:46.221Z,34.22
2022-12-16T01:27:42.418Z,34.85
2022-12-16T01:32:38.697Z,37.50
2022-12-16T01:37:34.921Z,37.28
2022-12-16T01:42:33.450Z,33.75
2022-12-16T01:47:32.534Z,39.03
2022-12-16T01:52:34.040Z,33.05
2022-12-16T01:57:34.679Z,33.43
2022-12-16T02:02:31.002Z,33.97
2022-12-16T02:07:27.674Z,31.98
2022-12-16T02:12:28.038Z,33.60
2022-12-16T02:17:30.491Z,39.20
2022-12-16T02:27:41.923Z,37.88
2022-12-16T02:32:59.977Z,33.45
2022-12-16T02:38:01.580Z,36.13
2022-12-16T02:43:00.366Z,37.53
2022-12-16T02:47:58.887Z,30.40
2022-12-16T02:52:55.793Z,39.38
2022-12-16T02:58:02.615Z,36.85
2022-12-16T03:03:12.315Z,31.77
2022-12-16T03:08:14.603Z,40.75
2022-12-16T03:13:11.761Z,45.70
2022-12-16T03:18:09.760Z,37.75
2022-12-16T03:23:12.955Z,32.78
2022-12-16T03:28:28.100Z,36.63
2022-12-16T03:33:27.005Z,34.60
2022-12-16T03:38:24.244Z,35.30
2022-12-16T03:43:21.283Z,37.58
2022-12-16T03:48:20.430Z,36.20
2022-12-16T03:53:16.750Z,39.58
2022-12-16T03:58:13.148Z,34.45
2022-12-16T04:03:09.742Z,35.65
2022-12-16T04:08:06.701Z,35.20
2022-12-16T04:13:21.768Z,38.30
2022-12-16T04:18:37.260Z,37.10
2022-12-16T04:23:53.298Z,37.58
2022-12-16T04:28:49.673Z,36.85
2022-12-16T04:34:04.715Z,39.55
2022-12-16T04:39:20.001Z,37.78
2022-12-16T04:44:35.011Z,38.78
2022-12-16T04:49:50.366Z,39.45
2022-12-16T04:55:05.894Z,37.53
2022-12-16T05:00:20.641Z,41.00
2022-12-16T05:05:35.568Z,40.42
2022-12-16T05:10:50.878Z,36.17
2022-12-16T05:16:06.022Z,38.67
2022-12-16T05:21:21.513Z,40.17
2022-12-16T05:26:36.508Z,39.67
2022-12-16T05:31:51.480Z,39.67
2022-12-16T05:37:06.583Z,42.42
2022-12-16T05:42:21.765Z,40.35
2022-12-16T05:47:36.819Z,39.13
2022-12-16T05:52:52.086Z,44.97
2022-12-16T05:58:12.332Z,43.80
2022-12-16T06:03:27.400Z,41.58
2022-12-16T06:08:46.766Z,39.85
2022-12-16T06:14:01.689Z,40.30
2022-12-16T06:19:16.627Z,44.97
2022-12-16T06:24:32.009Z,41.47
2022-12-16T06:29:47.086Z,43.33
2022-12-16T06:35:02.211Z,49.10
2022-12-16T06:40:19.917Z,41.92
2022-12-16T06:45:35.288Z,44.55
2022-12-16T06:50:55.644Z,50.65
2022-12-16T06:56:10.922Z,45.25
2022-12-16T07:01:26.008Z,45.53
2022-12-16T07:06:40.919Z,47.70
2022-12-16T07:11:56.018Z,44.60
2022-12-16T07:17:24.771Z,45.28
2022-12-16T07:22:39.736Z,47.00
2022-12-16T07:27:54.838Z,48.63
2022-12-16T07:33:09.766Z,44.42
2022-12-16T07:38:24.766Z,45.10
2022-12-16T07:43:39.907Z,43.67
2022-12-16T07:48:55.670Z,43.35
2022-12-16T07:54:10.859Z,46.97
2022-12-16T07:59:26.429Z,44.85
2022-12-16T08:04:41.518Z,46.60
2022-12-16T08:09:56.472Z,43.97
2022-12-16T08:15:11.526Z,43.45
2022-12-16T08:20:26.528Z,44.47
2022-12-16T08:25:41.711Z,43.58
2022-12-16T08:30:56.829Z,41.58
2022-12-16T08:36:11.773Z,44.97
2022-12-16T08:41:26.779Z,45.22
2022-12-16T08:46:42.021Z,47.85
2022-12-16T08:51:56.780Z,51.05
2022-12-16T08:57:11.891Z,46.90
2022-12-16T09:02:28.433Z,46.90
2022-12-16T09:07:43.665Z,45.42
2022-12-16T09:12:58.598Z,47.70
2022-12-16T09:18:14.303Z,51.85
2022-12-16T09:23:29.632Z,50.97
2022-12-16T09:28:44.982Z,51.35
2022-12-16T09:33:59.960Z,47.60
2022-12-16T09:39:14.942Z,44.83
2022-12-16T09:44:37.507Z,53.05
2022-12-16T09:49:55.534Z,45.03
2022-12-16T09:55:10.636Z,47.88
2022-12-16T10:00:29.995Z,51.33
2022-12-16T10:05:49.021Z,42.25
2022-12-16T10:11:14.658Z,45.05
2022-12-16T10:16:43.449Z,41.80
2022-12-16T10:22:12.800Z,47.58
2022-12-16T10:27:32.541Z,43.03
2022-12-16T10:32:59.467Z,47.55
2022-12-16T10:38:14.586Z,47.33
2022-12-16T10:43:37.181Z,44.90
2022-12-16T10:48:57.085Z,45.13
2022-12-16T10:54:12.385Z,50.80
2022-12-16T10:59:27.809Z,44.80
2022-12-16T11:04:46.477Z,52.30
2022-12-16T11:10:01.740Z,49.15
2022-12-16T11:15:31.727Z,47.97
2022-12-16T11:20:46.432Z,48.33
2022-12-16T11:26:01.500Z,47.38
2022-12-16T11:31:18.241Z,48.80
2022-12-16T11:36:38.896Z,45.47
2022-12-16T11:41:58.868Z,46.35
2022-12-16T11:47:14.113Z,43.60
2022-12-16T11:52:38.022Z,46.88
2022-12-16T11:58:03.681Z,47.25
2022-12-16T12:03:35.500Z,41.42
2022-12-16T12:09:01.661Z,45.53
2022-12-16T12:14:20.142Z,43.50
2022-12-16T12:19:44.066Z,47.08
2022-12-16T12:25:15.940Z,42.20
2022-12-16T12:30:32.482Z,43.25
2022-12-16T12:35:53.643Z,44.38
2022-12-16T12:41:23.209Z,39.67
2022-12-16T12:46:47.416Z,42.88
2022-12-16T12:52:02.524Z,48.92
2022-12-16T12:57:18.082Z,52.45
2022-12-16T13:02:35.582Z,45.25
2022-12-16T13:07:50.928Z,46.75
2022-12-16T13:13:25.672Z,47.33
2022-12-16T13:18:43.769Z,49.20
2022-12-16T13:23:59.747Z,46.92
2022-12-16T13:29:30.077Z,46.15
2022-12-16T13:34:47.153Z,41.67
2022-12-16T13:40:02.709Z,46.03
2022-12-16T13:45:17.892Z,45.42
2022-12-16T13:50:56.430Z,44.90
2022-12-16T13:56:15.314Z,48.53
2022-12-16T14:01:31.532Z,47.75
2022-12-16T14:06:47.976Z,51.90
2022-12-16T14:12:16.305Z,47.90
2022-12-16T14:17:35.250Z,52.35
2022-12-16T14:23:02.451Z,57.95
2022-12-16T14:28:18.388Z,48.75
2022-12-16T14:33:34.225Z,50.03
2022-12-16T14:38:50.224Z,59.17
2022-12-16T14:44:05.326Z,53.55
2022-12-16T14:49:20.263Z,58.42
2022-12-16T14:54:44.472Z,48.70
2022-12-16T14:59:59.559Z,52.88
2022-12-16T15:05:14.375Z,53.10
2022-12-16T15:10:32.642Z,56.05
2022-12-16T15:16:00.169Z,54.22
2022-12-16T15:21:15.210Z,54.42
2022-12-16T15:26:37.308Z,58.03
2022-12-16T15:31:53.411Z,65.45
2022-12-16T15:37:08.437Z,64.13
2022-12-16T15:42:23.547Z,65.63
2022-12-16T15:47:50.277Z,60.47
2022-12-16T15:53:06.261Z,63.42
2022-12-16T15:58:21.155Z,65.60
2022-12-16T16:03:38.290Z,59.60
2022-12-16T16:08:53.801Z,61.65
2022-12-16T16:14:13.871Z,62.03
2022-12-16T16:19:34.893Z,59.25
2022-12-16T16:24:49.870Z,70.60
2022-12-16T16:30:04.806Z,67.35
2022-12-16T16:35:19.449Z,65.55
2022-12-16T16:40:36.578Z,69.60
2022-12-16T16:45:51.581Z,72.22
2022-12-16T16:51:06.789Z,69.75
2022-12-16T16:56:22.255Z,67.63
2022-12-16T17:01:37.848Z,68.45
2022-12-16T17:06:52.585Z,71.50
2022-12-16T17:12:08.391Z,75.90
2022-12-16T17:17:23.952Z,69.57
2022-12-16T17:22:39.190Z,70.65
2022-12-16T17:27:54.206Z,69.68
2022-12-16T17:33:09.263Z,66.90
2022-12-16T17:38:24.301Z,76.40
2022-12-16T17:43:39.470Z,78.70
2022-12-16T17:48:58.948Z,71.07
2022-12-16T17:54:21.611Z,77.88
2022-12-16T17:59:38.881Z,73.13
2022-12-16T18:04:53.938Z,69.10
2022-12-16T18:10:08.927Z,69.32
2022-12-16T18:15:24.059Z,66.85
2022-12-16T18:20:39.167Z,76.78
2022-12-16T18:25:54.281Z,70.25
2022-12-16T18:31:09.570Z,71.70
2022-12-16T18:36:24.150Z,76.95
2022-12-16T18:41:39.713Z,76.72
2022-12-16T18:46:54.712Z,71.50
2022-12-16T18:52:09.739Z,78.85
2022-12-16T18:57:24.775Z,73.07
2022-12-16T19:02:40.125Z,76.82
2022-12-16T19:07:55.191Z,67.72
2022-12-16T19:13:13.920Z,72.80
2022-12-16T19:18:29.921Z,74.32
2022-12-16T19:23:44.896Z,67.78
2022-12-16T19:28:59.812Z,77.20
2022-12-16T19:34:14.856Z,75.18
2022-12-16T19:39:29.848Z,72.40
2022-12-16T19:44:44.919Z,75.05
2022-12-16T19:50:00.111Z,71.68
2022-12-16T19:55:17.404Z,80.65
2022-12-16T20:00:32.409Z,77.25
2022-12-16T20:05:47.345Z,80.57
2022-12-16T20:11:02.299Z,79.15
2022-12-16T20:16:20.916Z,85.55
2022-12-16T20:21:35.963Z,79.53
2022-12-16T20:26:50.961Z,73.45
2022-12-16T20:32:05.903Z,87.25
2022-12-16T20:37:20.946Z,82.45
2022-12-16T20:42:35.908Z,77.68
2022-12-16T20:47:50.902Z,80.72
2022-12-16T20:53:06.341Z,74.10
2022-12-16T20:58:21.212Z,83.47
2022-12-16T21:03:36.260Z,78.22
2022-12-16T21:08:51.450Z,85.78
2022-12-16T21:14:06.401Z,81.68
2022-12-16T21:19:21.354Z,72.50
2022-12-16T21:24:36.350Z,85.90
2022-12-16T21:29:51.370Z,88.80
2022-12-16T21:35:07.449Z,81.82
2022-12-16T21:40:22.627Z,89.50
2022-12-16T21:45:37.562Z,85.03
2022-12-16T21:50:52.735Z,98.50
2022-12-16T21:56:11.930Z,83.00
2022-12-16T22:01:27.073Z,80.82
2022-12-16T22:06:48.233Z,87.00
2022-12-16T22:12:03.706Z,89.38
2022-12-16T22:17:18.861Z,86.88
2022-12-16T22:22:34.147Z,86.88
2022-12-16T22:27:49.232Z,84.07
2022-12-16T22:33:05.308Z,89.35
2022-12-16T22:38:20.329Z,82.13
2022-12-16T22:43:35.617Z,76.40
2022-12-16T22:48:51.879Z,81.93
2022-12-16T22:54:07.049Z,83.70
2022-12-16T22:59:22.052Z,75.82
2022-12-16T23:04:37.198Z,76.30
2022-12-16T23:09:53.318Z,78.80
2022-12-16T23:15:11.812Z,76.93
2022-12-16T23:20:27.314Z,69.45
2022-12-16T23:25:56.961Z,78.03
2022-12-16T23:31:12.761Z,69.60
2022-12-16T23:36:27.782Z,75.05
2022-12-16T23:41:42.884Z,70.63
2022-12-16T23:46:58.004Z,71.85
2022-12-16T23:52:13.003Z,77.63
2022-12-16T23:57:28.022Z,81.80
